sensor_id;sensor_type;location;lat;lon;timestamp;pressure;altitude;pressure_sealevel;temperature;humidity
25510;BME280;13413;52.336;21.200;2023-03-26T00:02:36;99174.83;;;9.82;67.25
25510;BME280;13413;52.336;21.200;2023-03-26T00:05:31;99173.92;;;9.83;67.38
25510;BME280;13413;52.336;21.200;2023-03-26T00:08:25;99178.42;;;9.87;67.22
25510;BME280;13413;52.336;21.200;2023-03-26T00:11:21;99179.00;;;9.85;67.33
25510;BME280;13413;52.336;21.200;2023-03-26T00:14:16;99185.12;;;9.86;67.38
25510;BME280;13413;52.336;21.200;2023-03-26T00:17:27;99185.23;;;9.86;67.33
25510;BME280;13413;52.336;21.200;2023-03-26T00:20:20;99179.08;;;9.86;67.30
25510;BME280;13413;52.336;21.200;2023-03-26T00:23:15;99176.13;;;9.83;67.42
25510;BME280;13413;52.336;21.200;2023-03-26T00:26:09;99178.34;;;9.83;67.62
25510;BME280;13413;52.336;21.200;2023-03-26T00:29:03;99173.70;;;9.81;67.70
25510;BME280;13413;52.336;21.200;2023-03-26T00:31:57;99170.58;;;9.79;67.65
25510;BME280;13413;52.336;21.200;2023-03-26T00:34:51;99165.36;;;9.76;67.96
25510;BME280;13413;52.336;21.200;2023-03-26T00:37:46;99163.77;;;9.73;67.88
25510;BME280;13413;52.336;21.200;2023-03-26T00:40:40;99159.89;;;9.69;67.83
25510;BME280;13413;52.336;21.200;2023-03-26T00:43:35;99155.52;;;9.65;68.01
25510;BME280;13413;52.336;21.200;2023-03-26T00:46:30;99155.71;;;9.63;67.93
25510;BME280;13413;52.336;21.200;2023-03-26T00:49:23;99157.48;;;9.58;68.06
25510;BME280;13413;52.336;21.200;2023-03-26T00:52:18;99157.27;;;9.54;68.08
25510;BME280;13413;52.336;21.200;2023-03-26T00:55:11;99156.93;;;9.51;68.19
25510;BME280;13413;52.336;21.200;2023-03-26T00:58:05;99155.15;;;9.46;68.19
25510;BME280;13413;52.336;21.200;2023-03-26T01:07:02;99158.27;;;9.40;68.23
25510;BME280;13413;52.336;21.200;2023-03-26T01:09:59;99157.11;;;9.38;68.21
25510;BME280;13413;52.336;21.200;2023-03-26T01:12:52;99156.13;;;9.35;68.31
25510;BME280;13413;52.336;21.200;2023-03-26T01:15:47;99152.80;;;9.36;68.38
25510;BME280;13413;52.336;21.200;2023-03-26T01:18:40;99150.27;;;9.35;68.33
25510;BME280;13413;52.336;21.200;2023-03-26T01:21:35;99151.91;;;9.33;68.33
25510;BME280;13413;52.336;21.200;2023-03-26T01:24:29;99151.75;;;9.31;68.31
25510;BME280;13413;52.336;21.200;2023-03-26T01:27:30;99145.46;;;9.28;68.43
25510;BME280;13413;52.336;21.200;2023-03-26T01:30:32;99147.02;;;9.27;68.33
25510;BME280;13413;52.336;21.200;2023-03-26T01:33:31;99143.54;;;9.25;68.51
25510;BME280;13413;52.336;21.200;2023-03-26T01:36:31;99144.84;;;9.23;68.55
25510;BME280;13413;52.336;21.200;2023-03-26T01:39:32;99139.69;;;9.24;68.50
25510;BME280;13413;52.336;21.200;2023-03-26T01:42:35;99130.15;;;9.25;68.51
25510;BME280;13413;52.336;21.200;2023-03-26T01:45:33;99123.06;;;9.22;68.56
25510;BME280;13413;52.336;21.200;2023-03-26T01:48:34;99123.66;;;9.21;68.71
25510;BME280;13413;52.336;21.200;2023-03-26T01:51:31;99121.31;;;9.23;68.56
25510;BME280;13413;52.336;21.200;2023-03-26T01:57:26;99113.54;;;9.24;68.49
25510;BME280;13413;52.336;21.200;2023-03-26T02:00:28;99114.30;;;9.21;68.68
25510;BME280;13413;52.336;21.200;2023-03-26T02:03:26;99114.23;;;9.19;68.79
25510;BME280;13413;52.336;21.200;2023-03-26T02:06:27;99110.77;;;9.21;68.82
25510;BME280;13413;52.336;21.200;2023-03-26T02:09:25;99107.55;;;9.22;68.77
25510;BME280;13413;52.336;21.200;2023-03-26T02:12:21;99102.88;;;9.23;68.69
25510;BME280;13413;52.336;21.200;2023-03-26T02:15:16;99104.80;;;9.23;68.77
25510;BME280;13413;52.336;21.200;2023-03-26T02:18:10;99098.32;;;9.24;68.77
25510;BME280;13413;52.336;21.200;2023-03-26T02:21:06;99102.55;;;9.24;68.81
25510;BME280;13413;52.336;21.200;2023-03-26T02:24:01;99106.06;;;9.26;68.72
25510;BME280;13413;52.336;21.200;2023-03-26T02:26:54;99103.77;;;9.26;68.76
25510;BME280;13413;52.336;21.200;2023-03-26T02:29:49;99098.41;;;9.26;68.77
25510;BME280;13413;52.336;21.200;2023-03-26T02:32:43;99088.67;;;9.25;68.93
25510;BME280;13413;52.336;21.200;2023-03-26T02:35:37;99093.80;;;9.25;69.03
25510;BME280;13413;52.336;21.200;2023-03-26T02:38:31;99093.67;;;9.25;68.92
25510;BME280;13413;52.336;21.200;2023-03-26T02:41:25;99091.39;;;9.25;69.07
25510;BME280;13413;52.336;21.200;2023-03-26T02:44:19;99087.98;;;9.24;69.17
25510;BME280;13413;52.336;21.200;2023-03-26T02:47:12;99088.99;;;9.24;69.13
25510;BME280;13413;52.336;21.200;2023-03-26T02:50:08;99083.70;;;9.23;69.13
25510;BME280;13413;52.336;21.200;2023-03-26T02:53:03;99086.98;;;9.20;69.26
25510;BME280;13413;52.336;21.200;2023-03-26T02:55:57;99089.54;;;9.17;69.25
25510;BME280;13413;52.336;21.200;2023-03-26T02:58:51;99090.26;;;9.16;69.20
25510;BME280;13413;52.336;21.200;2023-03-26T03:01:44;99090.80;;;9.14;69.35
25510;BME280;13413;52.336;21.200;2023-03-26T03:04:39;99090.45;;;9.12;69.38
25510;BME280;13413;52.336;21.200;2023-03-26T03:07:33;99094.91;;;9.10;69.45
25510;BME280;13413;52.336;21.200;2023-03-26T03:10:27;99094.95;;;9.08;69.58
25510;BME280;13413;52.336;21.200;2023-03-26T03:13:22;99093.53;;;9.08;69.60
25510;BME280;13413;52.336;21.200;2023-03-26T03:16:16;99096.15;;;9.10;69.73
25510;BME280;13413;52.336;21.200;2023-03-26T03:19:08;99104.29;;;9.12;69.72
25510;BME280;13413;52.336;21.200;2023-03-26T03:27:35;99108.29;;;9.21;69.69
25510;BME280;13413;52.336;21.200;2023-03-26T03:30:29;99109.84;;;9.22;69.77
25510;BME280;13413;52.336;21.200;2023-03-26T03:33:23;99104.67;;;9.24;69.57
25510;BME280;13413;52.336;21.200;2023-03-26T03:36:21;99108.23;;;9.28;69.48
25510;BME280;13413;52.336;21.200;2023-03-26T03:39:15;99104.45;;;9.30;69.36
25510;BME280;13413;52.336;21.200;2023-03-26T03:42:09;99106.69;;;9.32;69.10
25510;BME280;13413;52.336;21.200;2023-03-26T03:45:03;99105.98;;;9.35;69.24
25510;BME280;13413;52.336;21.200;2023-03-26T03:47:56;99104.29;;;9.40;69.15
25510;BME280;13413;52.336;21.200;2023-03-26T03:50:50;99107.05;;;9.42;69.14
25510;BME280;13413;52.336;21.200;2023-03-26T03:53:44;99103.94;;;9.44;69.02
25510;BME280;13413;52.336;21.200;2023-03-26T03:56:38;99100.95;;;9.45;69.19
25510;BME280;13413;52.336;21.200;2023-03-26T03:59:32;99099.09;;;9.46;69.31
25510;BME280;13413;52.336;21.200;2023-03-26T04:02:26;99104.98;;;9.44;69.44
25510;BME280;13413;52.336;21.200;2023-03-26T04:05:20;99101.67;;;9.42;69.80
25510;BME280;13413;52.336;21.200;2023-03-26T04:08:14;99097.83;;;9.38;69.89
25510;BME280;13413;52.336;21.200;2023-03-26T04:11:08;99100.20;;;9.36;70.03
25510;BME280;13413;52.336;21.200;2023-03-26T04:14:02;99101.86;;;9.34;70.09
25510;BME280;13413;52.336;21.200;2023-03-26T04:16:56;99105.60;;;9.31;70.29
25510;BME280;13413;52.336;21.200;2023-03-26T04:19:50;99101.52;;;9.30;69.95
25510;BME280;13413;52.336;21.200;2023-03-26T04:22:44;99102.52;;;9.34;70.00
25510;BME280;13413;52.336;21.200;2023-03-26T04:25:38;99096.14;;;9.33;69.97
25510;BME280;13413;52.336;21.200;2023-03-26T04:28:35;99094.36;;;9.32;69.99
25510;BME280;13413;52.336;21.200;2023-03-26T04:31:33;99094.14;;;9.29;69.85
25510;BME280;13413;52.336;21.200;2023-03-26T04:34:27;99091.30;;;9.31;69.83
25510;BME280;13413;52.336;21.200;2023-03-26T04:37:25;99088.42;;;9.33;69.65
25510;BME280;13413;52.336;21.200;2023-03-26T04:40:21;99085.08;;;9.34;69.56
25510;BME280;13413;52.336;21.200;2023-03-26T04:43:17;99086.91;;;9.34;69.49
25510;BME280;13413;52.336;21.200;2023-03-26T04:46:11;99086.55;;;9.38;69.46
25510;BME280;13413;52.336;21.200;2023-03-26T04:49:05;99086.88;;;9.37;69.45
25510;BME280;13413;52.336;21.200;2023-03-26T04:52:12;99084.60;;;9.38;69.49
25510;BME280;13413;52.336;21.200;2023-03-26T04:55:16;99086.40;;;9.38;69.32
25510;BME280;13413;52.336;21.200;2023-03-26T04:58:12;99090.80;;;9.40;69.24
25510;BME280;13413;52.336;21.200;2023-03-26T05:01:08;99090.36;;;9.40;69.17
25510;BME280;13413;52.336;21.200;2023-03-26T05:04:02;99088.69;;;9.41;69.18
25510;BME280;13413;52.336;21.200;2023-03-26T05:06:56;99090.65;;;9.43;69.05
25510;BME280;13413;52.336;21.200;2023-03-26T05:09:50;99091.02;;;9.44;69.01
25510;BME280;13413;52.336;21.200;2023-03-26T05:12:44;99095.41;;;9.44;69.21
25510;BME280;13413;52.336;21.200;2023-03-26T05:15:38;99093.11;;;9.38;69.58
25510;BME280;13413;52.336;21.200;2023-03-26T05:18:32;99093.10;;;9.32;70.04
25510;BME280;13413;52.336;21.200;2023-03-26T05:21:26;99093.77;;;9.28;70.37
25510;BME280;13413;52.336;21.200;2023-03-26T05:24:20;99094.08;;;9.22;70.51
25510;BME280;13413;52.336;21.200;2023-03-26T05:27:15;99094.05;;;9.18;70.80
25510;BME280;13413;52.336;21.200;2023-03-26T05:30:10;99099.22;;;9.16;70.84
25510;BME280;13413;52.336;21.200;2023-03-26T05:33:08;99097.04;;;9.18;71.00
25510;BME280;13413;52.336;21.200;2023-03-26T05:36:02;99093.23;;;9.16;71.13
25510;BME280;13413;52.336;21.200;2023-03-26T05:45:18;99092.37;;;9.23;71.23
25510;BME280;13413;52.336;21.200;2023-03-26T05:48:12;99093.06;;;9.23;71.09
25510;BME280;13413;52.336;21.200;2023-03-26T05:51:07;99088.80;;;9.26;71.08
25510;BME280;13413;52.336;21.200;2023-03-26T05:54:01;99083.34;;;9.25;70.87
25510;BME280;13413;52.336;21.200;2023-03-26T05:56:55;99085.05;;;9.27;70.83
25510;BME280;13413;52.336;21.200;2023-03-26T05:59:49;99085.08;;;9.31;70.71
25510;BME280;13413;52.336;21.200;2023-03-26T06:02:43;99079.92;;;9.37;70.59
25510;BME280;13413;52.336;21.200;2023-03-26T06:05:37;99080.20;;;9.46;70.72
25510;BME280;13413;52.336;21.200;2023-03-26T06:08:31;99078.74;;;9.50;70.40
25510;BME280;13413;52.336;21.200;2023-03-26T06:11:25;99080.27;;;9.55;70.44
25510;BME280;13413;52.336;21.200;2023-03-26T06:14:19;99076.32;;;9.58;70.24
25510;BME280;13413;52.336;21.200;2023-03-26T06:17:15;99079.14;;;9.62;70.03
25510;BME280;13413;52.336;21.200;2023-03-26T06:23:08;99078.84;;;9.72;69.94
25510;BME280;13413;52.336;21.200;2023-03-26T06:26:02;99076.15;;;9.76;69.60
25510;BME280;13413;52.336;21.200;2023-03-26T06:28:56;99075.79;;;9.83;69.48
25510;BME280;13413;52.336;21.200;2023-03-26T06:31:50;99078.32;;;9.84;69.04
25510;BME280;13413;52.336;21.200;2023-03-26T06:34:44;99081.83;;;9.87;68.75
25510;BME280;13413;52.336;21.200;2023-03-26T06:37:38;99077.47;;;9.89;68.52
25510;BME280;13413;52.336;21.200;2023-03-26T06:40:33;99082.36;;;9.91;68.42
25510;BME280;13413;52.336;21.200;2023-03-26T06:43:25;99078.23;;;9.91;67.90
25510;BME280;13413;52.336;21.200;2023-03-26T06:46:22;99079.41;;;9.92;68.01
25510;BME280;13413;52.336;21.200;2023-03-26T06:49:16;99082.80;;;9.91;68.01
25510;BME280;13413;52.336;21.200;2023-03-26T06:52:11;99079.59;;;9.90;67.86
25510;BME280;13413;52.336;21.200;2023-03-26T06:55:06;99081.95;;;9.91;67.78
25510;BME280;13413;52.336;21.200;2023-03-26T06:58:01;99081.50;;;9.91;67.91
25510;BME280;13413;52.336;21.200;2023-03-26T07:00:55;99083.95;;;9.91;67.95
25510;BME280;13413;52.336;21.200;2023-03-26T07:03:49;99086.67;;;9.94;68.16
25510;BME280;13413;52.336;21.200;2023-03-26T07:06:43;99090.23;;;9.94;68.73
25510;BME280;13413;52.336;21.200;2023-03-26T07:09:37;99092.42;;;9.91;69.17
25510;BME280;13413;52.336;21.200;2023-03-26T07:12:31;99085.41;;;9.82;69.52
25510;BME280;13413;52.336;21.200;2023-03-26T07:15:25;99090.38;;;9.80;70.05
25510;BME280;13413;52.336;21.200;2023-03-26T07:18:18;99087.23;;;9.75;70.31
25510;BME280;13413;52.336;21.200;2023-03-26T07:21:14;99084.46;;;9.77;70.61
25510;BME280;13413;52.336;21.200;2023-03-26T07:24:12;99086.56;;;9.81;70.52
25510;BME280;13413;52.336;21.200;2023-03-26T07:27:12;99088.33;;;9.83;70.56
25510;BME280;13413;52.336;21.200;2023-03-26T07:30:16;99082.80;;;9.91;70.72
25510;BME280;13413;52.336;21.200;2023-03-26T07:33:17;99080.46;;;10.02;70.59
25510;BME280;13413;52.336;21.200;2023-03-26T07:36:22;99083.24;;;10.09;70.34
25510;BME280;13413;52.336;21.200;2023-03-26T07:39:43;99082.39;;;10.14;70.40
25510;BME280;13413;52.336;21.200;2023-03-26T07:42:48;99083.14;;;10.25;70.24
25510;BME280;13413;52.336;21.200;2023-03-26T07:45:47;99078.52;;;10.39;70.07
25510;BME280;13413;52.336;21.200;2023-03-26T07:48:43;99079.45;;;10.51;69.71
25510;BME280;13413;52.336;21.200;2023-03-26T07:51:38;99077.28;;;10.55;69.21
25510;BME280;13413;52.336;21.200;2023-03-26T07:54:31;99076.83;;;10.54;68.95
25510;BME280;13413;52.336;21.200;2023-03-26T07:57:27;99071.61;;;10.58;68.90
25510;BME280;13413;52.336;21.200;2023-03-26T08:24:12;99066.66;;;10.58;69.06
25510;BME280;13413;52.336;21.200;2023-03-26T08:27:15;99071.67;;;10.43;69.61
25510;BME280;13413;52.336;21.200;2023-03-26T08:30:16;99064.34;;;10.37;69.95
25510;BME280;13413;52.336;21.200;2023-03-26T08:33:16;99055.05;;;10.38;70.16
25510;BME280;13413;52.336;21.200;2023-03-26T08:36:10;99056.47;;;10.45;69.99
25510;BME280;13413;52.336;21.200;2023-03-26T08:39:04;99052.14;;;10.59;70.13
25510;BME280;13413;52.336;21.200;2023-03-26T08:42:33;99052.61;;;10.74;69.62
25510;BME280;13413;52.336;21.200;2023-03-26T08:45:46;99048.10;;;10.77;68.64
25510;BME280;13413;52.336;21.200;2023-03-26T08:49:17;99043.39;;;10.72;68.47
25510;BME280;13413;52.336;21.200;2023-03-26T08:52:37;99044.38;;;10.67;68.02
25510;BME280;13413;52.336;21.200;2023-03-26T08:55:44;99048.41;;;10.58;67.62
25510;BME280;13413;52.336;21.200;2023-03-26T08:59:05;99051.11;;;10.46;67.10
25510;BME280;13413;52.336;21.200;2023-03-26T09:02:38;99055.57;;;10.42;67.14
25510;BME280;13413;52.336;21.200;2023-03-26T09:09:48;99051.92;;;10.51;66.79
25510;BME280;13413;52.336;21.200;2023-03-26T09:16:59;99049.45;;;10.66;66.70
25510;BME280;13413;52.336;21.200;2023-03-26T09:20:17;99042.96;;;10.76;66.67
25510;BME280;13413;52.336;21.200;2023-03-26T09:26:45;99039.26;;;11.07;66.14
25510;BME280;13413;52.336;21.200;2023-03-26T09:33:22;99031.87;;;11.27;65.28
25510;BME280;13413;52.336;21.200;2023-03-26T09:36:33;99030.81;;;11.38;65.73
25510;BME280;13413;52.336;21.200;2023-03-26T09:39:41;99026.34;;;11.56;65.68
25510;BME280;13413;52.336;21.200;2023-03-26T09:42:59;99037.09;;;11.70;64.62
25510;BME280;13413;52.336;21.200;2023-03-26T09:46:04;99030.95;;;11.58;64.09
25510;BME280;13413;52.336;21.200;2023-03-26T09:49:16;99035.45;;;11.49;64.48
25510;BME280;13413;52.336;21.200;2023-03-26T09:52:33;99042.36;;;11.26;65.06
25510;BME280;13413;52.336;21.200;2023-03-26T09:55:41;99038.41;;;10.86;66.29
25510;BME280;13413;52.336;21.200;2023-03-26T09:59:00;99038.98;;;10.65;67.40
25510;BME280;13413;52.336;21.200;2023-03-26T10:02:11;99035.98;;;10.65;68.29
25510;BME280;13413;52.336;21.200;2023-03-26T10:05:28;99035.48;;;10.68;68.39
25510;BME280;13413;52.336;21.200;2023-03-26T10:08:57;99025.97;;;10.71;68.53
25510;BME280;13413;52.336;21.200;2023-03-26T10:12:04;99027.56;;;10.68;68.54
25510;BME280;13413;52.336;21.200;2023-03-26T10:15:15;99027.61;;;10.67;68.53
25510;BME280;13413;52.336;21.200;2023-03-26T10:18:20;99022.44;;;10.80;68.75
25510;BME280;13413;52.336;21.200;2023-03-26T10:21:24;99015.62;;;11.07;68.82
25510;BME280;13413;52.336;21.200;2023-03-26T10:24:34;99013.55;;;11.22;68.08
25510;BME280;13413;52.336;21.200;2023-03-26T10:27:38;99009.60;;;11.26;67.66
25510;BME280;13413;52.336;21.200;2023-03-26T10:30:45;99023.64;;;11.22;67.43
25510;BME280;13413;52.336;21.200;2023-03-26T10:33:44;99032.89;;;10.99;67.36
25510;BME280;13413;52.336;21.200;2023-03-26T10:36:43;99030.52;;;10.79;67.86
25510;BME280;13413;52.336;21.200;2023-03-26T10:46:03;99007.91;;;11.65;68.07
25510;BME280;13413;52.336;21.200;2023-03-26T10:52:03;98992.84;;;12.28;67.35
25510;BME280;13413;52.336;21.200;2023-03-26T10:55:08;98993.45;;;12.81;64.00
25510;BME280;13413;52.336;21.200;2023-03-26T10:58:08;98982.33;;;13.06;63.34
25510;BME280;13413;52.336;21.200;2023-03-26T11:01:10;98974.96;;;13.22;61.95
25510;BME280;13413;52.336;21.200;2023-03-26T11:04:14;98982.91;;;12.89;61.91
25510;BME280;13413;52.336;21.200;2023-03-26T11:07:20;98991.29;;;12.47;61.39
25510;BME280;13413;52.336;21.200;2023-03-26T11:10:26;99017.66;;;12.06;61.69
25510;BME280;13413;52.336;21.200;2023-03-26T11:13:33;99015.55;;;11.56;62.69
25510;BME280;13413;52.336;21.200;2023-03-26T11:16:38;99011.27;;;11.19;63.69
25510;BME280;13413;52.336;21.200;2023-03-26T11:19:40;99007.33;;;11.01;64.64
25510;BME280;13413;52.336;21.200;2023-03-26T11:22:45;98998.67;;;11.48;65.63
25510;BME280;13413;52.336;21.200;2023-03-26T11:25:56;99000.39;;;11.84;65.26
25510;BME280;13413;52.336;21.200;2023-03-26T11:29:08;99002.56;;;11.78;64.46
25510;BME280;13413;52.336;21.200;2023-03-26T11:32:07;99006.37;;;11.54;63.81
25510;BME280;13413;52.336;21.200;2023-03-26T11:35:06;98998.68;;;11.45;63.88
25510;BME280;13413;52.336;21.200;2023-03-26T11:38:12;98996.79;;;11.52;63.81
25510;BME280;13413;52.336;21.200;2023-03-26T11:41:13;98999.98;;;11.57;63.88
25510;BME280;13413;52.336;21.200;2023-03-26T11:44:17;98998.58;;;11.66;63.99
25510;BME280;13413;52.336;21.200;2023-03-26T11:47:17;98998.86;;;11.66;63.43
25510;BME280;13413;52.336;21.200;2023-03-26T11:50:19;99002.83;;;11.76;63.09
25510;BME280;13413;52.336;21.200;2023-03-26T11:53:15;99004.05;;;11.85;62.86
25510;BME280;13413;52.336;21.200;2023-03-26T11:56:12;99002.92;;;11.89;63.03
25510;BME280;13413;52.336;21.200;2023-03-26T11:59:11;99001.95;;;11.99;62.42
25510;BME280;13413;52.336;21.200;2023-03-26T12:02:24;99008.55;;;12.04;61.37
25510;BME280;13413;52.336;21.200;2023-03-26T12:05:20;99000.52;;;11.83;60.96
25510;BME280;13413;52.336;21.200;2023-03-26T12:08:32;99009.88;;;11.74;61.50
25510;BME280;13413;52.336;21.200;2023-03-26T12:11:29;99021.58;;;11.66;61.63
25510;BME280;13413;52.336;21.200;2023-03-26T12:14:27;99044.05;;;11.53;62.18
25510;BME280;13413;52.336;21.200;2023-03-26T12:17:31;99063.09;;;11.18;63.25
25510;BME280;13413;52.336;21.200;2023-03-26T12:20:34;99046.42;;;10.64;64.39
25510;BME280;13413;52.336;21.200;2023-03-26T12:23:38;99038.69;;;10.27;65.54
25510;BME280;13413;52.336;21.200;2023-03-26T12:26:39;99034.05;;;10.23;65.91
25510;BME280;13413;52.336;21.200;2023-03-26T12:29:32;99029.98;;;10.23;66.25
25510;BME280;13413;52.336;21.200;2023-03-26T12:32:31;99024.27;;;10.27;66.45
25510;BME280;13413;52.336;21.200;2023-03-26T12:35:27;99024.21;;;10.39;66.89
25510;BME280;13413;52.336;21.200;2023-03-26T12:38:28;99017.91;;;10.66;67.02
25510;BME280;13413;52.336;21.200;2023-03-26T12:41:34;99013.66;;;11.00;67.37
25510;BME280;13413;52.336;21.200;2023-03-26T12:44:32;99007.17;;;11.53;66.78
25510;BME280;13413;52.336;21.200;2023-03-26T12:47:28;99013.05;;;11.96;65.87
25510;BME280;13413;52.336;21.200;2023-03-26T12:50:27;99008.02;;;12.31;64.88
25510;BME280;13413;52.336;21.200;2023-03-26T12:53:41;99002.95;;;12.55;63.26
25510;BME280;13413;52.336;21.200;2023-03-26T12:56:44;99000.39;;;12.72;62.24
25510;BME280;13413;52.336;21.200;2023-03-26T13:02:55;98996.20;;;13.18;59.80
25510;BME280;13413;52.336;21.200;2023-03-26T13:16:42;98994.82;;;13.17;56.15
25510;BME280;13413;52.336;21.200;2023-03-26T13:19:47;98998.34;;;12.96;56.47
25510;BME280;13413;52.336;21.200;2023-03-26T13:22:50;98997.59;;;12.84;56.79
25510;BME280;13413;52.336;21.200;2023-03-26T13:25:53;98997.94;;;12.76;57.13
25510;BME280;13413;52.336;21.200;2023-03-26T13:28:58;98995.71;;;12.76;57.68
25510;BME280;13413;52.336;21.200;2023-03-26T13:32:03;98996.75;;;12.83;57.47
25510;BME280;13413;52.336;21.200;2023-03-26T13:35:10;98999.19;;;12.84;57.01
25510;BME280;13413;52.336;21.200;2023-03-26T13:38:10;98997.90;;;12.85;56.29
25510;BME280;13413;52.336;21.200;2023-03-26T13:41:14;98998.41;;;12.76;56.07
25510;BME280;13413;52.336;21.200;2023-03-26T13:44:14;98999.08;;;12.72;56.14
25510;BME280;13413;52.336;21.200;2023-03-26T13:47:13;98994.04;;;12.63;56.02
25510;BME280;13413;52.336;21.200;2023-03-26T13:50:17;98996.45;;;12.54;55.98
25510;BME280;13413;52.336;21.200;2023-03-26T13:53:15;98991.95;;;12.51;56.16
25510;BME280;13413;52.336;21.200;2023-03-26T13:56:14;98992.56;;;12.51;56.44
25510;BME280;13413;52.336;21.200;2023-03-26T13:59:13;98995.70;;;12.52;56.27
25510;BME280;13413;52.336;21.200;2023-03-26T14:02:12;98992.66;;;12.48;56.23
25510;BME280;13413;52.336;21.200;2023-03-26T14:05:12;98998.30;;;12.46;55.97
25510;BME280;13413;52.336;21.200;2023-03-26T14:08:13;98999.36;;;12.38;56.19
25510;BME280;13413;52.336;21.200;2023-03-26T14:11:13;98997.15;;;12.35;56.62
25510;BME280;13413;52.336;21.200;2023-03-26T14:14:12;98996.73;;;12.30;56.65
25510;BME280;13413;52.336;21.200;2023-03-26T14:17:15;99000.30;;;12.27;56.63
25510;BME280;13413;52.336;21.200;2023-03-26T14:20:45;99005.56;;;12.27;57.20
25510;BME280;13413;52.336;21.200;2023-03-26T14:24:03;99013.56;;;12.16;57.86
25510;BME280;13413;52.336;21.200;2023-03-26T14:27:11;99003.05;;;11.97;58.46
25510;BME280;13413;52.336;21.200;2023-03-26T14:37:22;99003.33;;;11.85;58.79
25510;BME280;13413;52.336;21.200;2023-03-26T14:40:28;99000.74;;;11.90;58.59
25510;BME280;13413;52.336;21.200;2023-03-26T14:43:47;99000.27;;;11.98;58.54
25510;BME280;13413;52.336;21.200;2023-03-26T14:47:00;99003.30;;;12.07;58.43
25510;BME280;13413;52.336;21.200;2023-03-26T14:50:18;99000.58;;;12.32;58.08
25510;BME280;13413;52.336;21.200;2023-03-26T14:53:20;98996.94;;;12.58;57.52
25510;BME280;13413;52.336;21.200;2023-03-26T14:56:46;98996.48;;;12.59;56.20
25510;BME280;13413;52.336;21.200;2023-03-26T15:00:01;98999.73;;;12.77;56.17
25510;BME280;13413;52.336;21.200;2023-03-26T15:03:42;98998.90;;;12.86;55.58
25510;BME280;13413;52.336;21.200;2023-03-26T15:07:10;99000.23;;;12.93;55.18
25510;BME280;13413;52.336;21.200;2023-03-26T15:10:21;99005.79;;;12.70;54.34
25510;BME280;13413;52.336;21.200;2023-03-26T15:13:38;99008.16;;;12.46;54.15
25510;BME280;13413;52.336;21.200;2023-03-26T15:27:12;99007.58;;;12.30;55.03
25510;BME280;13413;52.336;21.200;2023-03-26T15:36:10;99008.05;;;12.51;54.84
25510;BME280;13413;52.336;21.200;2023-03-26T15:39:36;99008.05;;;12.56;55.09
25510;BME280;13413;52.336;21.200;2023-03-26T15:42:42;99007.17;;;12.77;55.00
25510;BME280;13413;52.336;21.200;2023-03-26T15:45:42;99012.38;;;12.87;54.89
25510;BME280;13413;52.336;21.200;2023-03-26T15:48:57;99020.95;;;12.88;54.86
25510;BME280;13413;52.336;21.200;2023-03-26T15:52:02;99024.98;;;12.82;55.12
25510;BME280;13413;52.336;21.200;2023-03-26T15:55:02;99024.05;;;12.79;55.30
25510;BME280;13413;52.336;21.200;2023-03-26T15:58:02;99025.78;;;12.71;54.96
25510;BME280;13413;52.336;21.200;2023-03-26T16:01:09;99027.98;;;12.74;55.18
25510;BME280;13413;52.336;21.200;2023-03-26T16:04:14;99029.89;;;12.70;54.99
25510;BME280;13413;52.336;21.200;2023-03-26T16:07:25;99029.17;;;12.68;55.34
25510;BME280;13413;52.336;21.200;2023-03-26T16:10:28;99033.05;;;12.65;55.33
25510;BME280;13413;52.336;21.200;2023-03-26T16:13:39;99035.55;;;12.51;55.34
25510;BME280;13413;52.336;21.200;2023-03-26T16:19:58;99040.17;;;12.27;55.55
25510;BME280;13413;52.336;21.200;2023-03-26T16:23:03;99043.94;;;12.17;55.27
25510;BME280;13413;52.336;21.200;2023-03-26T16:26:08;99038.73;;;12.08;55.01
25510;BME280;13413;52.336;21.200;2023-03-26T16:29:21;99041.59;;;12.06;55.18
25510;BME280;13413;52.336;21.200;2023-03-26T16:32:23;99042.55;;;12.03;54.82
25510;BME280;13413;52.336;21.200;2023-03-26T16:35:59;99044.33;;;12.00;54.56
25510;BME280;13413;52.336;21.200;2023-03-26T16:39:10;99046.88;;;11.98;54.60
25510;BME280;13413;52.336;21.200;2023-03-26T16:42:21;99043.49;;;11.97;54.62
25510;BME280;13413;52.336;21.200;2023-03-26T16:45:23;99047.63;;;11.95;54.54
25510;BME280;13413;52.336;21.200;2023-03-26T16:48:28;99047.97;;;11.90;54.59
25510;BME280;13413;52.336;21.200;2023-03-26T16:51:30;99048.30;;;11.88;54.98
25510;BME280;13413;52.336;21.200;2023-03-26T16:54:32;99047.23;;;11.85;54.77
25510;BME280;13413;52.336;21.200;2023-03-26T16:57:39;99051.09;;;11.80;54.84
25510;BME280;13413;52.336;21.200;2023-03-26T17:01:01;99054.64;;;11.72;54.81
25510;BME280;13413;52.336;21.200;2023-03-26T17:04:01;99057.48;;;11.70;54.97
25510;BME280;13413;52.336;21.200;2023-03-26T17:07:12;99064.11;;;11.67;55.13
25510;BME280;13413;52.336;21.200;2023-03-26T17:10:16;99069.88;;;11.58;55.05
25510;BME280;13413;52.336;21.200;2023-03-26T17:13:19;99070.03;;;11.52;55.22
25510;BME280;13413;52.336;21.200;2023-03-26T17:16:20;99077.45;;;11.47;55.28
25510;BME280;13413;52.336;21.200;2023-03-26T17:19:26;99075.64;;;11.44;55.39
25510;BME280;13413;52.336;21.200;2023-03-26T17:22:33;99075.92;;;11.35;55.50
25510;BME280;13413;52.336;21.200;2023-03-26T17:25:33;99078.57;;;11.29;55.67
25510;BME280;13413;52.336;21.200;2023-03-26T17:28:40;99077.43;;;11.25;55.82
25510;BME280;13413;52.336;21.200;2023-03-26T17:31:40;99077.70;;;11.22;55.73
25510;BME280;13413;52.336;21.200;2023-03-26T17:34:57;99079.06;;;11.17;55.86
25510;BME280;13413;52.336;21.200;2023-03-26T17:37:52;99078.86;;;11.09;55.92
25510;BME280;13413;52.336;21.200;2023-03-26T17:40:49;99082.10;;;11.05;55.97
25510;BME280;13413;52.336;21.200;2023-03-26T17:43:45;99083.55;;;11.00;56.03
25510;BME280;13413;52.336;21.200;2023-03-26T17:46:39;99084.70;;;10.94;56.08